createdAt,value
2023-04-03T00:00:46.106Z,24.54
2023-04-03T00:01:46.194Z,24.53
2023-04-03T00:02:46.336Z,24.54
2023-04-03T00:03:46.195Z,24.54
2023-04-03T00:04:46.251Z,24.54
2023-04-03T00:05:46.261Z,24.53
2023-04-03T00:06:46.316Z,24.54
2023-04-03T00:07:46.366Z,24.53
2023-04-03T00:08:46.411Z,24.54
2023-04-03T00:09:46.448Z,24.53
2023-04-03T00:10:46.501Z,24.53
2023-04-03T00:11:46.560Z,24.53
2023-04-03T00:12:46.597Z,24.53
2023-04-03T00:13:46.657Z,24.53
2023-04-03T00:14:46.689Z,24.53
2023-04-03T00:15:46.756Z,24.53
2023-04-03T00:16:46.819Z,24.53
2023-04-03T00:17:46.883Z,24.53
2023-04-03T00:18:46.890Z,24.53
2023-04-03T00:19:46.965Z,24.53
2023-04-03T00:20:46.997Z,24.52
2023-04-03T00:21:47.060Z,24.53
2023-04-03T00:22:47.073Z,24.52
2023-04-03T00:23:47.102Z,24.53
2023-04-03T00:24:47.158Z,24.52
2023-04-03T00:25:47.189Z,24.52
2023-04-03T00:26:47.292Z,24.52
2023-04-03T00:27:47.262Z,24.52
2023-04-03T00:28:47.295Z,24.52
2023-04-03T00:29:47.358Z,24.52
2023-04-03T00:30:47.493Z,24.52
2023-04-03T00:31:47.444Z,24.52
2023-04-03T00:32:47.545Z,24.51
2023-04-03T00:33:47.572Z,24.51
2023-04-03T00:34:47.595Z,24.52
2023-04-03T00:35:47.685Z,24.52
2023-04-03T00:36:47.750Z,24.51
2023-04-03T00:37:47.737Z,24.51
2023-04-03T00:38:47.787Z,24.51
2023-04-03T00:39:47.812Z,24.52
2023-04-03T00:40:47.874Z,24.52
2023-04-03T00:41:47.925Z,24.51
2023-04-03T00:42:48.006Z,24.52
2023-04-03T00:43:47.995Z,24.51
2023-04-03T00:44:48.036Z,24.51
2023-04-03T00:45:48.086Z,24.51
2023-04-03T00:46:48.087Z,24.50
2023-04-03T00:47:48.150Z,24.50
2023-04-03T00:48:48.166Z,24.51
2023-04-03T00:49:48.138Z,24.50
2023-04-03T00:50:48.132Z,24.51
2023-04-03T00:51:48.161Z,24.50
2023-04-03T00:52:48.185Z,24.50
2023-04-03T00:53:48.250Z,24.51
2023-04-03T00:54:48.179Z,24.51
2023-04-03T00:55:48.211Z,24.51
2023-04-03T00:56:48.225Z,24.50
2023-04-03T00:57:48.265Z,24.50
2023-04-03T00:58:48.345Z,24.50
2023-04-03T00:59:48.365Z,24.49
2023-04-03T01:00:48.492Z,24.49
2023-04-03T01:01:48.511Z,24.49
2023-04-03T01:02:48.550Z,24.49
2023-04-03T01:03:49.268Z,24.49
2023-04-03T01:04:48.595Z,24.49
2023-04-03T01:05:48.642Z,24.49
2023-04-03T01:06:48.705Z,24.49
2023-04-03T01:07:48.761Z,24.48
2023-04-03T01:08:48.824Z,24.48
2023-04-03T01:09:48.894Z,24.48
2023-04-03T01:10:48.925Z,24.48
2023-04-03T01:11:48.974Z,24.48
2023-04-03T01:12:48.941Z,24.49
2023-04-03T01:13:48.947Z,24.49
2023-04-03T01:14:48.934Z,24.49
2023-04-03T01:15:48.973Z,24.48
2023-04-03T01:16:48.950Z,24.48
2023-04-03T01:17:48.988Z,24.48
2023-04-03T01:18:48.992Z,24.48
2023-04-03T01:19:49.010Z,24.48
2023-04-03T01:20:49.111Z,24.48
2023-04-03T01:21:49.181Z,24.48
2023-04-03T01:22:49.183Z,24.48
2023-04-03T01:23:49.232Z,24.49
2023-04-03T01:24:49.284Z,24.48
2023-04-03T01:25:49.356Z,24.48
2023-04-03T01:26:49.386Z,24.48
2023-04-03T01:27:49.445Z,24.48
2023-04-03T01:28:49.502Z,24.48
2023-04-03T01:29:49.553Z,24.48
2023-04-03T01:30:49.632Z,24.48
2023-04-03T01:31:49.701Z,24.47
2023-04-03T01:32:49.746Z,24.47
2023-04-03T01:33:49.753Z,24.47
2023-04-03T01:34:49.809Z,24.46
2023-04-03T01:35:49.867Z,24.46
2023-04-03T01:36:49.891Z,24.47
2023-04-03T01:37:49.922Z,24.46
2023-04-03T01:38:49.997Z,24.46
2023-04-03T01:39:50.027Z,24.46
2023-04-03T01:40:50.080Z,24.46
2023-04-03T01:41:50.112Z,24.45
2023-04-03T01:42:50.165Z,24.45
2023-04-03T01:43:50.208Z,24.46
2023-04-03T01:44:50.219Z,24.45
2023-04-03T01:45:50.251Z,24.45
2023-04-03T01:46:50.227Z,24.45
2023-04-03T01:47:50.281Z,24.46
2023-04-03T01:48:50.280Z,24.46
2023-04-03T01:49:50.286Z,24.45
2023-04-03T01:50:50.293Z,24.45
2023-04-03T01:51:50.293Z,24.45
2023-04-03T01:52:50.318Z,24.45
2023-04-03T01:53:50.344Z,24.45
2023-04-03T01:54:50.399Z,24.45
2023-04-03T01:55:50.451Z,24.45
2023-04-03T01:56:50.536Z,24.44
2023-04-03T01:57:50.555Z,24.45
2023-04-03T01:58:50.618Z,24.44
2023-04-03T01:59:50.674Z,24.44
2023-04-03T02:00:50.783Z,24.44
2023-04-03T02:01:50.779Z,24.44
2023-04-03T02:02:50.837Z,24.44
2023-04-03T02:03:50.898Z,24.44
2023-04-03T02:04:50.905Z,24.44
2023-04-03T02:05:50.943Z,24.44
2023-04-03T02:06:51.009Z,24.43
2023-04-03T02:07:51.064Z,24.44
2023-04-03T02:08:51.099Z,24.43
2023-04-03T02:09:51.170Z,24.43
2023-04-03T02:10:51.195Z,24.43
2023-04-03T02:11:51.264Z,24.43
2023-04-03T02:12:51.316Z,24.42
2023-04-03T02:13:51.353Z,24.43
2023-04-03T02:14:51.417Z,24.42
2023-04-03T02:15:51.452Z,24.40
2023-04-03T02:16:51.528Z,24.42
2023-04-03T02:17:51.614Z,24.41
2023-04-03T02:18:51.596Z,24.40
2023-04-03T02:19:51.637Z,24.41
2023-04-03T02:20:51.631Z,24.40
2023-04-03T02:21:51.648Z,24.40
2023-04-03T02:22:51.673Z,24.41
2023-04-03T02:23:51.690Z,24.41
2023-04-03T02:24:51.721Z,24.41
2023-04-03T02:25:51.774Z,24.40
2023-04-03T02:26:51.824Z,24.40
2023-04-03T02:27:51.890Z,24.39
2023-04-03T02:28:51.945Z,24.40
2023-04-03T02:29:51.979Z,24.40
2023-04-03T02:30:52.054Z,24.39
2023-04-03T02:31:52.092Z,24.39
2023-04-03T02:32:52.240Z,24.39
2023-04-03T02:33:52.202Z,24.39
2023-04-03T02:34:52.283Z,24.40
2023-04-03T02:35:52.313Z,24.39
2023-04-03T02:36:52.343Z,24.39
2023-04-03T02:37:52.426Z,24.39
2023-04-03T02:38:52.457Z,24.39
2023-04-03T02:39:52.505Z,24.39
2023-04-03T02:40:52.540Z,24.39
2023-04-03T02:41:52.606Z,24.40
2023-04-03T02:42:52.624Z,24.39
2023-04-03T02:43:52.686Z,24.38
2023-04-03T02:44:52.732Z,24.39
2023-04-03T02:45:52.840Z,24.39
2023-04-03T02:46:52.819Z,24.39
2023-04-03T02:47:52.901Z,24.39
2023-04-03T02:48:52.891Z,24.39
2023-04-03T02:49:52.957Z,24.39
2023-04-03T02:50:53.007Z,24.38
2023-04-03T02:51:53.047Z,24.38
2023-04-03T02:52:53.118Z,24.38
2023-04-03T02:53:53.169Z,24.38
2023-04-03T02:54:53.237Z,24.38
2023-04-03T02:55:53.272Z,24.38
2023-04-03T02:56:53.373Z,24.38
2023-04-03T02:57:53.392Z,24.38
2023-04-03T02:58:53.441Z,24.38
2023-04-03T02:59:53.466Z,24.38
2023-04-03T03:00:53.516Z,24.38
2023-04-03T03:01:53.572Z,24.37
2023-04-03T03:02:53.541Z,24.37
2023-04-03T03:03:53.568Z,24.37
2023-04-03T03:04:53.620Z,24.37
2023-04-03T03:05:53.598Z,24.37
2023-04-03T03:06:53.656Z,24.37
2023-04-03T03:07:53.708Z,24.37
2023-04-03T03:08:53.762Z,24.37
2023-04-03T03:09:53.819Z,24.37
2023-04-03T03:10:53.854Z,24.37
2023-04-03T03:11:53.868Z,24.36
2023-04-03T03:12:53.939Z,24.37
2023-04-03T03:13:53.965Z,24.37
2023-04-03T03:14:54.019Z,24.37
2023-04-03T03:15:54.060Z,24.37
2023-04-03T03:16:54.122Z,24.37
2023-04-03T03:17:54.213Z,24.37
2023-04-03T03:18:54.198Z,24.37
2023-04-03T03:19:54.249Z,24.37
2023-04-03T03:20:54.281Z,24.38
2023-04-03T03:21:54.313Z,24.38
2023-04-03T03:22:54.349Z,24.37
2023-04-03T03:23:54.370Z,24.37
2023-04-03T03:24:54.419Z,24.37
2023-04-03T03:25:54.479Z,24.38
2023-04-03T03:26:54.518Z,24.37
2023-04-03T03:27:54.579Z,24.38
2023-04-03T03:28:54.618Z,24.38
2023-04-03T03:29:54.659Z,24.37
2023-04-03T03:30:54.716Z,24.36
2023-04-03T03:31:54.796Z,24.36
2023-04-03T03:32:54.874Z,24.36
2023-04-03T03:33:54.869Z,24.37
2023-04-03T03:34:54.935Z,24.36
2023-04-03T03:35:54.990Z,24.36
2023-04-03T03:36:55.050Z,24.36
2023-04-03T03:37:55.039Z,24.36
2023-04-03T03:38:55.048Z,24.34
2023-04-03T03:39:55.095Z,24.34
2023-04-03T03:40:55.098Z,24.34
2023-04-03T03:41:55.130Z,24.34
2023-04-03T03:42:55.152Z,24.34
2023-04-03T03:43:55.169Z,24.34
2023-04-03T03:44:55.213Z,24.34
2023-04-03T03:45:55.258Z,24.34
2023-04-03T03:46:55.347Z,24.33
2023-04-03T03:47:55.374Z,24.33
2023-04-03T03:48:55.391Z,24.33
2023-04-03T03:49:55.430Z,24.33
2023-04-03T03:50:55.473Z,24.33
2023-04-03T03:51:55.509Z,24.32
2023-04-03T03:52:55.553Z,24.32
2023-04-03T03:53:55.566Z,24.32
2023-04-03T03:54:55.596Z,24.32
2023-04-03T03:55:55.651Z,24.32
2023-04-03T03:56:55.707Z,24.32
2023-04-03T03:57:55.718Z,24.31
2023-04-03T03:58:55.760Z,24.30
2023-04-03T03:59:55.784Z,24.30
2023-04-03T04:00:55.794Z,24.31
2023-04-03T04:01:55.879Z,24.30
2023-04-03T04:02:57.947Z,24.31
2023-04-03T04:03:55.916Z,24.30
2023-04-03T04:04:55.836Z,24.30
2023-04-03T04:05:55.834Z,24.29
2023-04-03T04:06:55.827Z,24.29
2023-04-03T04:07:55.831Z,24.29
2023-04-03T04:08:55.815Z,24.30
2023-04-03T04:09:55.812Z,24.29
2023-04-03T04:10:55.789Z,24.29
2023-04-03T04:11:55.794Z,24.28
2023-04-03T04:12:57.407Z,24.29
2023-04-03T04:13:55.783Z,24.29
2023-04-03T04:14:55.777Z,24.28
2023-04-03T04:15:55.748Z,24.28
2023-04-03T04:16:55.766Z,24.28
2023-04-03T04:17:55.786Z,24.28
2023-04-03T04:18:55.758Z,24.28
2023-04-03T04:19:55.742Z,24.28
2023-04-03T04:20:55.714Z,24.28
2023-04-03T04:21:55.711Z,24.28
2023-04-03T04:22:55.699Z,24.28
2023-04-03T04:23:55.700Z,24.28
2023-04-03T04:24:55.692Z,24.29
2023-04-03T04:25:55.709Z,24.29
2023-04-03T04:26:55.688Z,24.30
2023-04-03T04:27:55.670Z,24.30
2023-04-03T04:28:55.671Z,24.30
2023-04-03T04:29:56.344Z,24.30
2023-04-03T04:30:55.693Z,24.30
2023-04-03T04:31:55.659Z,24.31
2023-04-03T04:32:55.689Z,24.31
2023-04-03T04:33:55.634Z,24.31
2023-04-03T04:34:55.664Z,24.32
2023-04-03T04:35:55.648Z,24.32
2023-04-03T04:36:55.656Z,24.32
2023-04-03T04:37:55.594Z,24.33
2023-04-03T04:38:55.586Z,24.32
2023-04-03T04:39:55.582Z,24.33
2023-04-03T04:40:55.587Z,24.33
2023-04-03T04:41:55.582Z,24.32
2023-04-03T04:42:55.580Z,24.33
2023-04-03T04:43:55.591Z,24.34
2023-04-03T04:44:55.659Z,24.33
2023-04-03T04:45:55.718Z,24.34
2023-04-03T04:46:55.758Z,24.34
2023-04-03T04:47:55.888Z,24.34
2023-04-03T04:48:55.841Z,24.35
2023-04-03T04:49:55.900Z,24.34
2023-04-03T04:50:55.961Z,24.34
2023-04-03T04:51:55.985Z,24.34
2023-04-03T04:52:56.024Z,24.34
2023-04-03T04:53:56.262Z,24.34
2023-04-03T04:54:56.098Z,24.34
2023-04-03T04:55:56.120Z,24.34
2023-04-03T04:56:56.180Z,24.34
2023-04-03T04:57:56.166Z,24.34
2023-04-03T04:58:56.172Z,24.34
2023-04-03T04:59:56.213Z,24.34
2023-04-03T05:00:56.240Z,24.33
2023-04-03T05:01:56.313Z,24.35
2023-04-03T05:02:56.320Z,24.34
2023-04-03T05:03:56.334Z,24.34
2023-04-03T05:04:56.435Z,24.33
2023-04-03T05:05:56.413Z,24.34
2023-04-03T05:06:56.460Z,24.34
2023-04-03T05:07:56.505Z,24.33
2023-04-03T05:08:56.529Z,24.33
2023-04-03T05:09:56.530Z,24.34
2023-04-03T05:10:56.606Z,24.34
2023-04-03T05:11:56.597Z,24.34
2023-04-03T05:12:56.622Z,24.35
2023-04-03T05:13:56.659Z,24.35
2023-04-03T05:14:56.671Z,24.35
2023-04-03T05:15:56.801Z,24.34
2023-04-03T05:16:56.734Z,24.36
2023-04-03T05:17:56.785Z,24.35
2023-04-03T05:18:56.789Z,24.35
2023-04-03T05:19:56.840Z,24.35
2023-04-03T05:20:56.886Z,24.35
2023-04-03T05:21:56.911Z,24.35
2023-04-03T05:22:56.963Z,24.35
2023-04-03T05:23:57.015Z,24.35
2023-04-03T05:24:57.052Z,24.35
2023-04-03T05:25:57.094Z,24.35
2023-04-03T05:26:57.140Z,24.35
2023-04-03T05:27:57.169Z,24.36
2023-04-03T05:28:57.220Z,24.36
2023-04-03T05:29:57.267Z,24.36
2023-04-03T05:30:57.330Z,24.36
2023-04-03T05:31:57.372Z,24.36
2023-04-03T05:32:57.430Z,24.36
2023-04-03T05:33:57.430Z,24.36
2023-04-03T05:34:58.394Z,24.36
2023-04-03T05:35:57.673Z,24.36
2023-04-03T05:36:57.688Z,24.36
2023-04-03T05:37:57.746Z,24.37
2023-04-03T05:38:57.818Z,24.37
2023-04-03T05:39:57.827Z,24.37
2023-04-03T05:40:57.864Z,24.37
2023-04-03T05:41:57.914Z,24.37
2023-04-03T05:42:57.968Z,24.37
2023-04-03T05:43:57.973Z,24.37
2023-04-03T05:44:58.014Z,24.38
2023-04-03T05:45:58.268Z,24.37
2023-04-03T05:46:58.066Z,24.38
2023-04-03T05:47:58.169Z,24.38
2023-04-03T05:48:58.148Z,24.38
2023-04-03T05:49:58.205Z,24.37
2023-04-03T05:50:58.245Z,24.38
2023-04-03T05:51:58.321Z,24.38
2023-04-03T05:52:58.382Z,24.38
2023-04-03T05:53:58.442Z,24.38
2023-04-03T05:54:58.505Z,24.38
2023-04-03T05:55:58.496Z,24.39
2023-04-03T05:56:58.593Z,24.38
2023-04-03T05:57:58.575Z,24.38
2023-04-03T05:58:58.644Z,24.39
2023-04-03T05:59:58.691Z,24.39
2023-04-03T06:00:58.727Z,24.39
2023-04-03T06:01:58.766Z,24.40
2023-04-03T06:02:58.868Z,24.40
2023-04-03T06:03:58.928Z,24.39
2023-04-03T06:04:58.838Z,24.40
2023-04-03T06:05:58.792Z,24.40
2023-04-03T06:06:58.834Z,24.40
2023-04-03T06:07:58.845Z,24.40
2023-04-03T06:08:58.842Z,24.41
2023-04-03T06:09:58.834Z,24.40
2023-04-03T06:10:58.844Z,24.41
2023-04-03T06:11:58.886Z,24.42
2023-04-03T06:12:58.874Z,24.42
2023-04-03T06:13:58.941Z,24.41
2023-04-03T06:14:58.927Z,24.42
2023-04-03T06:15:58.903Z,24.43
2023-04-03T06:16:58.981Z,24.43
2023-04-03T06:17:59.060Z,24.43
2023-04-03T06:18:59.036Z,24.43
2023-04-03T06:19:59.087Z,24.44
2023-04-03T06:20:59.125Z,24.43
2023-04-03T06:21:59.204Z,24.43
2023-04-03T06:22:59.409Z,24.44
2023-04-03T06:23:59.281Z,24.44
2023-04-03T06:24:59.335Z,24.44
2023-04-03T06:25:59.392Z,24.44
2023-04-03T06:26:59.445Z,24.45
2023-04-03T06:27:59.478Z,24.45
2023-04-03T06:28:59.531Z,24.44
2023-04-03T06:29:59.587Z,24.45
2023-04-03T06:30:59.684Z,24.45
2023-04-03T06:31:59.711Z,24.46
2023-04-03T06:32:59.726Z,24.46
2023-04-03T06:33:59.733Z,24.47
2023-04-03T06:34:59.729Z,24.46
2023-04-03T06:35:59.823Z,24.47
2023-04-03T06:36:59.755Z,24.47
2023-04-03T06:37:59.905Z,24.48
2023-04-03T06:38:59.790Z,24.48
2023-04-03T06:39:59.792Z,24.48
2023-04-03T06:40:59.801Z,24.49
2023-04-03T06:41:59.839Z,24.49
2023-04-03T06:42:59.852Z,24.49
2023-04-03T06:43:59.860Z,24.49
2023-04-03T06:44:59.906Z,24.50
2023-04-03T06:45:59.970Z,24.50
2023-04-03T06:46:59.998Z,24.50
2023-04-03T06:48:00.183Z,24.50
2023-04-03T06:49:00.152Z,24.51
2023-04-03T06:50:00.162Z,24.51
2023-04-03T06:51:00.209Z,24.51
2023-04-03T06:52:02.075Z,24.51
2023-04-03T06:53:00.291Z,24.51
2023-04-03T06:54:00.341Z,24.52
2023-04-03T06:55:00.336Z,24.52
2023-04-03T06:56:00.399Z,24.52
2023-04-03T06:57:00.475Z,24.53
2023-04-03T06:58:00.501Z,24.53
2023-04-03T06:59:00.514Z,24.54
2023-04-03T07:00:00.573Z,24.54
2023-04-03T07:01:00.569Z,24.53
2023-04-03T07:02:00.630Z,24.53
2023-04-03T07:03:00.654Z,24.54
2023-04-03T07:04:00.646Z,24.53
2023-04-03T07:05:00.704Z,24.54
2023-04-03T07:06:00.704Z,24.54
2023-04-03T07:07:00.730Z,24.55
2023-04-03T07:08:00.737Z,24.55
2023-04-03T07:09:00.740Z,24.56
2023-04-03T07:10:00.811Z,24.56
2023-04-03T07:11:00.835Z,24.56
2023-04-03T07:12:00.888Z,24.56
2023-04-03T07:13:00.899Z,24.57
2023-04-03T07:14:00.892Z,24.56
2023-04-03T07:15:00.916Z,24.57
2023-04-03T07:16:00.976Z,24.57
2023-04-03T07:17:00.913Z,24.58
2023-04-03T07:18:00.994Z,24.58
2023-04-03T07:19:00.963Z,24.58
2023-04-03T07:20:00.977Z,24.58
2023-04-03T07:21:01.293Z,24.57
2023-04-03T07:22:00.992Z,24.58
2023-04-03T07:23:02.706Z,24.59
2023-04-03T07:24:01.003Z,24.59
2023-04-03T07:25:01.030Z,24.58
2023-04-03T07:26:01.029Z,24.58
2023-04-03T07:27:01.050Z,24.59
2023-04-03T07:28:01.044Z,24.59
2023-04-03T07:29:01.060Z,24.59
2023-04-03T07:30:01.055Z,24.59
2023-04-03T07:31:01.085Z,24.60
2023-04-03T07:32:01.171Z,24.60
2023-04-03T07:33:01.157Z,24.61
2023-04-03T07:34:01.123Z,24.61
2023-04-03T07:35:01.795Z,24.61
2023-04-03T07:36:01.213Z,24.62
2023-04-03T07:37:01.194Z,24.61
2023-04-03T07:38:01.174Z,24.62
2023-04-03T07:39:01.198Z,24.63
2023-04-03T07:40:01.230Z,24.62
2023-04-03T07:41:01.256Z,24.63
2023-04-03T07:42:01.270Z,24.64
2023-04-03T07:43:01.287Z,24.64
2023-04-03T07:44:01.304Z,24.64
2023-04-03T07:45:01.457Z,24.64
2023-04-03T07:46:01.393Z,24.64
2023-04-03T07:47:01.390Z,24.65
2023-04-03T07:48:01.475Z,24.65
2023-04-03T07:49:01.480Z,24.66
2023-04-03T07:50:01.513Z,24.66
2023-04-03T07:51:01.550Z,24.66
2023-04-03T07:52:01.572Z,24.66
2023-04-03T07:53:01.628Z,24.67
2023-04-03T07:54:01.649Z,24.68
2023-04-03T07:55:01.713Z,24.67
2023-04-03T07:56:01.710Z,24.68
2023-04-03T07:57:01.770Z,24.68
2023-04-03T07:58:01.834Z,24.69
2023-04-03T07:59:01.808Z,24.70
2023-04-03T08:00:01.835Z,24.70
2023-04-03T08:01:01.845Z,24.70
2023-04-03T08:02:01.895Z,24.71
2023-04-03T08:03:02.046Z,24.72
2023-04-03T08:04:02.124Z,24.72
2023-04-03T08:05:02.094Z,24.73
2023-04-03T08:06:02.032Z,24.74
2023-04-03T08:07:02.078Z,24.74
2023-04-03T08:08:02.121Z,24.76
2023-04-03T08:09:02.120Z,24.76
2023-04-03T08:10:02.177Z,24.76
2023-04-03T08:11:02.204Z,24.77
2023-04-03T08:12:02.208Z,24.77
2023-04-03T08:13:02.255Z,24.78
2023-04-03T08:14:02.292Z,24.79
2023-04-03T08:15:02.320Z,24.80
2023-04-03T08:16:02.341Z,24.80
2023-04-03T08:17:02.451Z,24.81
2023-04-03T08:18:02.497Z,24.81
2023-04-03T08:19:02.762Z,24.82
2023-04-03T08:20:02.480Z,24.82
2023-04-03T08:21:02.520Z,24.84
2023-04-03T08:22:02.558Z,24.84
2023-04-03T08:23:02.584Z,24.85
2023-04-03T08:24:02.621Z,24.86
2023-04-03T08:25:02.748Z,24.86
2023-04-03T08:26:02.705Z,24.87
2023-04-03T08:27:02.751Z,24.88
2023-04-03T08:28:02.755Z,24.89
2023-04-03T08:29:02.800Z,24.90
2023-04-03T08:30:02.798Z,24.92
2023-04-03T08:31:02.848Z,24.92
2023-04-03T08:32:02.853Z,24.93
2023-04-03T08:33:03.004Z,24.94
2023-04-03T08:34:02.888Z,24.94
2023-04-03T08:35:02.918Z,24.96
2023-04-03T08:36:02.936Z,24.97
2023-04-03T08:37:02.973Z,24.97
2023-04-03T08:38:03.002Z,24.99
2023-04-03T08:39:03.031Z,25.00
2023-04-03T08:40:03.043Z,25.01
2023-04-03T08:41:03.110Z,25.03
2023-04-03T08:42:03.114Z,25.04
2023-04-03T08:43:03.139Z,25.04
2023-04-03T08:44:03.161Z,25.05
2023-04-03T08:45:03.156Z,25.07
2023-04-03T08:46:03.199Z,25.09
2023-04-03T08:47:03.263Z,25.09
2023-04-03T08:48:03.248Z,25.10
2023-04-03T08:49:03.228Z,25.11
2023-04-03T08:50:03.207Z,25.12
2023-04-03T08:51:03.802Z,25.13
2023-04-03T08:52:03.257Z,25.18
2023-04-03T08:53:03.296Z,25.21
2023-04-03T08:54:03.397Z,25.25
2023-04-03T08:55:03.379Z,25.28
2023-04-03T08:56:03.382Z,25.28
2023-04-03T08:57:03.447Z,25.30
2023-04-03T08:58:03.451Z,25.31
2023-04-03T08:59:03.481Z,25.35
2023-04-03T09:00:03.552Z,25.37
2023-04-03T09:01:03.561Z,25.39
2023-04-03T09:02:03.647Z,25.39
2023-04-03T09:03:03.792Z,25.41
2023-04-03T09:04:03.717Z,25.44
2023-04-03T09:05:03.719Z,25.45
2023-04-03T09:06:03.778Z,25.47
2023-04-03T09:07:03.804Z,25.49
2023-04-03T09:08:03.839Z,25.50
2023-04-03T09:09:03.855Z,25.51
2023-04-03T09:10:03.907Z,25.53
2023-04-03T09:11:03.928Z,25.55
2023-04-03T09:12:03.963Z,25.55
2023-04-03T09:13:04.003Z,25.57
2023-04-03T09:14:04.100Z,25.58
2023-04-03T09:15:04.074Z,25.59
2023-04-03T09:16:04.123Z,25.61
2023-04-03T09:17:04.117Z,25.61
2023-04-03T09:18:04.252Z,25.63
2023-04-03T09:19:04.291Z,25.64
2023-04-03T09:20:04.252Z,25.67
2023-04-03T09:21:04.297Z,25.72
2023-04-03T09:22:04.340Z,25.74
2023-04-03T09:23:04.360Z,25.75
2023-04-03T09:24:04.395Z,25.79
2023-04-03T09:25:04.419Z,25.84
2023-04-03T09:26:04.429Z,25.87
2023-04-03T09:27:04.505Z,25.86
2023-04-03T09:28:04.465Z,25.87
2023-04-03T09:29:04.465Z,25.87
2023-04-03T09:30:04.474Z,25.88
2023-04-03T09:31:04.500Z,25.89
2023-04-03T09:32:04.482Z,25.90
2023-04-03T09:33:04.537Z,25.90
2023-04-03T09:34:04.538Z,25.91
2023-04-03T09:35:19.226Z,25.92
2023-04-03T09:36:05.585Z,25.92
2023-04-03T09:37:04.559Z,25.94
2023-04-03T09:38:04.526Z,25.97
2023-04-03T09:39:04.574Z,25.99
2023-04-03T09:40:04.511Z,25.99
2023-04-03T09:41:04.523Z,25.98
2023-04-03T09:42:04.507Z,25.98
2023-04-03T09:43:04.507Z,25.98
2023-04-03T09:44:04.506Z,25.99
2023-04-03T09:45:04.492Z,25.98
2023-04-03T09:46:04.505Z,25.98
2023-04-03T09:47:04.579Z,25.98
2023-04-03T09:48:05.560Z,26.01
2023-04-03T09:49:09.480Z,26.04
2023-04-03T09:50:05.443Z,26.07
2023-04-03T09:51:04.508Z,26.09
2023-04-03T09:52:04.437Z,26.08
2023-04-03T09:53:04.409Z,26.07
2023-04-03T09:54:04.400Z,26.05
2023-04-03T09:55:04.423Z,26.06
2023-04-03T09:56:04.412Z,26.07
2023-04-03T09:57:04.451Z,26.07
2023-04-03T09:58:04.392Z,26.07
2023-04-03T09:59:04.375Z,26.07
2023-04-03T10:00:04.357Z,26.08
2023-04-03T10:01:04.389Z,26.09
2023-04-03T10:02:04.368Z,26.09
2023-04-03T10:03:04.384Z,26.11
2023-04-03T10:04:04.362Z,26.12
2023-04-03T10:06:04.329Z,26.16
2023-04-03T10:07:04.425Z,26.21
2023-04-03T10:08:04.343Z,26.24
2023-04-03T10:09:04.313Z,26.28
2023-04-03T10:10:04.324Z,26.30
2023-04-03T10:11:04.294Z,26.25
2023-04-03T10:12:04.311Z,26.22
2023-04-03T10:13:04.303Z,26.17
2023-04-03T10:14:04.316Z,26.15
2023-04-03T10:15:04.290Z,26.12
2023-04-03T10:16:04.263Z,26.10
2023-04-03T10:17:04.327Z,26.08
2023-04-03T10:18:14.318Z,26.07
2023-04-03T10:19:05.263Z,26.05
2023-04-03T10:20:04.257Z,26.04
2023-04-03T10:21:06.101Z,26.03
2023-04-03T10:22:04.240Z,26.03
2023-04-03T10:23:04.327Z,26.01
2023-04-03T10:24:04.228Z,26.00
2023-04-03T10:25:04.197Z,25.99
2023-04-03T10:26:04.213Z,25.96
2023-04-03T10:27:04.210Z,25.96
2023-04-03T10:28:04.192Z,25.94
2023-04-03T10:29:04.213Z,25.93
2023-04-03T10:30:04.164Z,25.92
2023-04-03T10:31:04.189Z,25.91
2023-04-03T10:32:04.199Z,25.89
2023-04-03T10:33:04.275Z,25.87
2023-04-03T10:34:04.241Z,25.85
2023-04-03T10:35:05.429Z,25.83
2023-04-03T10:36:04.367Z,25.82
2023-04-03T10:37:04.392Z,25.80
2023-04-03T10:38:04.448Z,25.79
2023-04-03T10:39:04.545Z,25.77
2023-04-03T10:40:04.482Z,25.76
2023-04-03T10:41:04.501Z,25.75
2023-04-03T10:43:04.542Z,25.73
2023-04-03T10:44:04.530Z,25.72
2023-04-03T10:45:04.533Z,25.72
2023-04-03T10:46:04.543Z,25.69
2023-04-03T10:47:04.515Z,25.68
2023-04-03T10:48:04.552Z,25.67
2023-04-03T10:49:04.503Z,25.65
2023-04-03T10:50:04.488Z,25.64
2023-04-03T10:51:04.473Z,25.63
2023-04-03T10:52:04.458Z,25.61
2023-04-03T10:53:04.471Z,25.59
2023-04-03T10:54:04.492Z,25.58
2023-04-03T10:55:04.531Z,25.58
2023-04-03T10:56:04.430Z,25.57
2023-04-03T10:57:11.805Z,25.54
2023-04-03T10:58:05.430Z,25.53
2023-04-03T10:59:04.401Z,25.52
2023-04-03T11:00:04.412Z,25.52
2023-04-03T11:01:04.400Z,25.50
2023-04-03T11:02:04.464Z,25.50
2023-04-03T11:03:04.560Z,25.49
2023-04-03T11:04:04.447Z,25.49
2023-04-03T11:05:04.368Z,25.48
2023-04-03T11:06:04.370Z,25.47
2023-04-03T11:07:04.351Z,25.46
2023-04-03T11:08:04.365Z,25.46
2023-04-03T11:09:04.381Z,25.45
2023-04-03T11:10:04.405Z,25.44
2023-04-03T11:11:04.529Z,25.44
2023-04-03T11:12:04.460Z,25.44
2023-04-03T11:13:04.487Z,25.47
2023-04-03T11:14:04.615Z,25.47
2023-04-03T11:15:04.615Z,25.49
2023-04-03T11:16:04.647Z,25.50
2023-04-03T11:17:04.669Z,25.51
2023-04-03T11:18:04.716Z,25.52
2023-04-03T11:19:04.723Z,25.53
2023-04-03T11:20:04.750Z,25.53
2023-04-03T11:21:04.775Z,25.54
2023-04-03T11:22:04.831Z,25.54
2023-04-03T11:23:04.901Z,25.56
2023-04-03T11:24:04.880Z,25.56
2023-04-03T11:25:04.922Z,25.56
2023-04-03T11:26:05.013Z,25.57
2023-04-03T11:27:05.094Z,25.57
2023-04-03T11:28:05.054Z,25.57
2023-04-03T11:29:05.076Z,25.58
2023-04-03T11:30:05.117Z,25.58
2023-04-03T11:31:05.198Z,25.59
2023-04-03T11:32:05.159Z,25.60
2023-04-03T11:33:05.243Z,25.61
2023-04-03T11:34:05.260Z,25.62
2023-04-03T11:35:05.269Z,25.62
2023-04-03T11:36:12.471Z,25.63
2023-04-03T11:37:06.288Z,25.64
2023-04-03T11:38:05.292Z,25.64
2023-04-03T11:39:05.299Z,25.66
2023-04-03T11:40:05.275Z,25.66
2023-04-03T11:41:05.254Z,25.67
2023-04-03T11:42:12.816Z,25.70
2023-04-03T11:43:06.314Z,25.73
2023-04-03T11:44:05.240Z,25.75
2023-04-03T11:45:05.208Z,25.76
2023-04-03T11:46:05.208Z,25.77
2023-04-03T11:47:05.298Z,25.78
2023-04-03T11:48:17.086Z,25.79
2023-04-03T11:49:06.208Z,25.80
2023-04-03T11:50:05.194Z,25.81
2023-04-03T11:51:05.182Z,25.81
2023-04-03T11:52:05.166Z,25.82
2023-04-03T11:53:05.166Z,25.83
2023-04-03T11:54:05.150Z,25.83
2023-04-03T11:55:05.141Z,25.84
2023-04-03T11:56:05.133Z,25.86
2023-04-03T11:57:05.140Z,25.86
2023-04-03T11:58:05.111Z,25.87
2023-04-03T11:59:05.186Z,25.87
2023-04-03T12:00:05.127Z,25.88
2023-04-03T12:01:05.097Z,25.87
2023-04-03T12:02:05.125Z,25.88
2023-04-03T12:03:05.200Z,25.88
2023-04-03T12:04:05.200Z,25.88
2023-04-03T12:05:05.147Z,25.88
2023-04-03T12:06:05.193Z,25.88
2023-04-03T12:07:05.263Z,25.88
2023-04-03T12:08:05.243Z,25.88
2023-04-03T12:09:05.275Z,25.87
2023-04-03T12:10:05.318Z,25.86
2023-04-03T12:11:05.418Z,25.86
2023-04-03T12:12:05.408Z,25.86
2023-04-03T12:13:05.446Z,25.86
2023-04-03T12:14:05.543Z,25.86
2023-04-03T12:15:05.628Z,25.86
2023-04-03T12:16:05.576Z,25.86
2023-04-03T12:17:05.644Z,25.84
2023-04-03T12:18:05.666Z,25.85
2023-04-03T12:19:05.647Z,25.85
2023-04-03T12:20:05.633Z,25.85
2023-04-03T12:21:05.650Z,25.84
2023-04-03T12:22:05.694Z,25.83
2023-04-03T12:23:06.291Z,25.82
2023-04-03T12:24:05.760Z,25.82
2023-04-03T12:25:05.745Z,25.82
2023-04-03T12:26:05.779Z,25.80
2023-04-03T12:27:05.770Z,25.81
2023-04-03T12:28:05.805Z,25.82
2023-04-03T12:29:05.812Z,25.81
2023-04-03T12:30:05.841Z,25.82
2023-04-03T12:31:05.948Z,25.81
2023-04-03T12:32:05.889Z,25.82
2023-04-03T12:33:12.656Z,25.82
2023-04-03T12:34:06.927Z,25.81
2023-04-03T12:35:05.924Z,25.82
2023-04-03T12:36:05.978Z,25.82
2023-04-03T12:37:05.912Z,25.82
2023-04-03T12:38:05.881Z,25.82
2023-04-03T12:39:05.906Z,25.83
2023-04-03T12:40:05.896Z,25.81
2023-04-03T12:41:05.881Z,25.81
2023-04-03T12:42:05.851Z,25.82
2023-04-03T12:43:05.843Z,25.81
2023-04-03T12:44:05.843Z,25.81
2023-04-03T12:45:05.901Z,25.79
2023-04-03T12:46:05.955Z,25.80
2023-04-03T12:47:06.001Z,25.79
2023-04-03T12:48:05.925Z,25.79
2023-04-03T12:49:05.913Z,25.79
2023-04-03T12:50:05.949Z,25.79
2023-04-03T12:51:05.995Z,25.80
2023-04-03T12:52:06.039Z,25.81
2023-04-03T12:53:06.097Z,25.81
2023-04-03T12:54:06.143Z,25.82
2023-04-03T12:55:06.171Z,25.82